sensor_id;sensor_type;location;lat;lon;timestamp;pressure;altitude;pressure_sealevel;temperature;humidity
36010;BME280;22076;52.182;5.404;2023-12-22T00:01:07;100440.84;;;12.51;100.00
36010;BME280;22076;52.182;5.404;2023-12-22T00:03:34;100466.63;;;12.57;100.00
36010;BME280;22076;52.182;5.404;2023-12-22T00:06:02;100473.59;;;12.19;100.00
36010;BME280;22076;52.182;5.404;2023-12-22T00:08:28;100484.19;;;11.65;100.00
36010;BME280;22076;52.182;5.404;2023-12-22T00:10:55;100475.41;;;11.53;100.00
36010;BME280;22076;52.182;5.404;2023-12-22T00:13:21;100462.88;;;11.84;100.00
36010;BME280;22076;52.182;5.404;2023-12-22T00:15:48;100464.13;;;11.78;100.00
36010;BME280;22076;52.182;5.404;2023-12-22T00:18:14;100469.91;;;11.96;100.00
36010;BME280;22076;52.182;5.404;2023-12-22T00:20:41;100477.19;;;11.78;100.00
36010;BME280;22076;52.182;5.404;2023-12-22T00:23:09;100476.88;;;11.70;100.00
36010;BME280;22076;52.182;5.404;2023-12-22T00:25:35;100476.06;;;11.69;100.00
36010;BME280;22076;52.182;5.404;2023-12-22T00:28:02;100469.22;;;12.07;100.00
36010;BME280;22076;52.182;5.404;2023-12-22T00:30:29;100480.69;;;11.92;100.00
36010;BME280;22076;52.182;5.404;2023-12-22T00:32:55;100487.19;;;11.99;100.00
36010;BME280;22076;52.182;5.404;2023-12-22T00:35:22;100489.47;;;11.78;100.00
36010;BME280;22076;52.182;5.404;2023-12-22T00:37:48;100481.00;;;11.87;100.00
36010;BME280;22076;52.182;5.404;2023-12-22T00:40:16;100478.69;;;11.29;100.00
36010;BME280;22076;52.182;5.404;2023-12-22T00:42:42;100473.69;;;11.39;100.00
36010;BME280;22076;52.182;5.404;2023-12-22T00:45:09;100471.16;;;11.37;100.00
36010;BME280;22076;52.182;5.404;2023-12-22T00:47:36;100497.31;;;11.78;100.00
36010;BME280;22076;52.182;5.404;2023-12-22T00:50:03;100474.59;;;11.78;100.00
36010;BME280;22076;52.182;5.404;2023-12-22T00:52:31;100468.06;;;11.98;100.00
36010;BME280;22076;52.182;5.404;2023-12-22T00:54:57;100486.44;;;11.84;100.00
36010;BME280;22076;52.182;5.404;2023-12-22T00:57:25;100492.03;;;12.18;100.00
36010;BME280;22076;52.182;5.404;2023-12-22T00:59:52;100497.06;;;11.95;100.00
36010;BME280;22076;52.182;5.404;2023-12-22T01:02:18;100490.22;;;11.39;100.00
36010;BME280;22076;52.182;5.404;2023-12-22T01:04:45;100499.53;;;11.84;100.00
36010;BME280;22076;52.182;5.404;2023-12-22T01:07:12;100494.94;;;11.87;100.00
36010;BME280;22076;52.182;5.404;2023-12-22T01:09:39;100511.00;;;12.09;100.00
36010;BME280;22076;52.182;5.404;2023-12-22T01:12:06;100511.09;;;12.20;100.00
36010;BME280;22076;52.182;5.404;2023-12-22T01:14:34;100520.72;;;12.32;100.00
36010;BME280;22076;52.182;5.404;2023-12-22T01:17:00;100518.00;;;12.08;100.00
36010;BME280;22076;52.182;5.404;2023-12-22T01:19:28;100521.56;;;12.33;100.00
36010;BME280;22076;52.182;5.404;2023-12-22T01:21:54;100524.41;;;12.30;100.00
36010;BME280;22076;52.182;5.404;2023-12-22T01:24:21;100518.31;;;12.16;100.00
36010;BME280;22076;52.182;5.404;2023-12-22T01:26:47;100518.09;;;12.06;100.00
36010;BME280;22076;52.182;5.404;2023-12-22T01:29:14;100519.03;;;12.05;100.00
36010;BME280;22076;52.182;5.404;2023-12-22T01:31:42;100506.69;;;12.20;100.00
36010;BME280;22076;52.182;5.404;2023-12-22T01:34:08;100509.72;;;12.01;100.00
36010;BME280;22076;52.182;5.404;2023-12-22T01:36:35;100513.66;;;11.81;100.00
36010;BME280;22076;52.182;5.404;2023-12-22T01:39:01;100511.41;;;12.02;100.00
36010;BME280;22076;52.182;5.404;2023-12-22T01:41:28;100506.22;;;11.88;100.00
36010;BME280;22076;52.182;5.404;2023-12-22T01:43:55;100505.81;;;11.94;100.00
36010;BME280;22076;52.182;5.404;2023-12-22T01:46:21;100505.81;;;11.41;100.00
36010;BME280;22076;52.182;5.404;2023-12-22T01:48:49;100501.94;;;11.87;100.00
36010;BME280;22076;52.182;5.404;2023-12-22T01:51:16;100495.16;;;11.97;100.00
36010;BME280;22076;52.182;5.404;2023-12-22T01:53:44;100497.50;;;12.15;100.00
36010;BME280;22076;52.182;5.404;2023-12-22T01:56:12;100503.75;;;11.99;100.00
36010;BME280;22076;52.182;5.404;2023-12-22T01:58:38;100519.25;;;12.15;100.00
36010;BME280;22076;52.182;5.404;2023-12-22T02:01:06;100514.66;;;12.19;100.00
36010;BME280;22076;52.182;5.404;2023-12-22T02:03:33;100514.47;;;11.82;100.00
36010;BME280;22076;52.182;5.404;2023-12-22T02:06:03;100511.28;;;12.04;100.00
36010;BME280;22076;52.182;5.404;2023-12-22T02:08:32;100504.59;;;12.00;100.00
36010;BME280;22076;52.182;5.404;2023-12-22T02:10:59;100509.00;;;11.99;100.00
36010;BME280;22076;52.182;5.404;2023-12-22T02:13:25;100514.59;;;11.93;100.00
36010;BME280;22076;52.182;5.404;2023-12-22T02:16:00;100507.84;;;12.29;100.00
36010;BME280;22076;52.182;5.404;2023-12-22T02:18:33;100502.16;;;12.48;100.00
36010;BME280;22076;52.182;5.404;2023-12-22T02:21:00;100500.19;;;12.26;100.00
36010;BME280;22076;52.182;5.404;2023-12-22T02:23:28;100498.22;;;12.17;100.00
36010;BME280;22076;52.182;5.404;2023-12-22T02:26:00;100480.28;;;12.36;100.00
36010;BME280;22076;52.182;5.404;2023-12-22T02:28:30;100470.84;;;12.08;100.00
36010;BME280;22076;52.182;5.404;2023-12-22T02:31:02;100478.91;;;12.44;100.00
36010;BME280;22076;52.182;5.404;2023-12-22T02:33:31;100476.00;;;11.97;100.00
36010;BME280;22076;52.182;5.404;2023-12-22T02:36:02;100470.34;;;12.16;100.00
36010;BME280;22076;52.182;5.404;2023-12-22T02:38:31;100463.44;;;12.28;100.00
36010;BME280;22076;52.182;5.404;2023-12-22T02:40:59;100463.31;;;11.90;100.00
36010;BME280;22076;52.182;5.404;2023-12-22T02:43:27;100434.63;;;11.89;100.00
36010;BME280;22076;52.182;5.404;2023-12-22T02:45:53;100443.00;;;11.94;100.00
36010;BME280;22076;52.182;5.404;2023-12-22T02:48:20;100437.00;;;11.92;100.00
36010;BME280;22076;52.182;5.404;2023-12-22T02:50:46;100447.72;;;11.89;100.00
36010;BME280;22076;52.182;5.404;2023-12-22T02:53:13;100437.34;;;11.87;100.00
36010;BME280;22076;52.182;5.404;2023-12-22T02:55:40;100448.03;;;12.10;100.00
36010;BME280;22076;52.182;5.404;2023-12-22T02:58:07;100455.59;;;12.02;100.00
36010;BME280;22076;52.182;5.404;2023-12-22T03:00:33;100458.94;;;12.04;100.00
36010;BME280;22076;52.182;5.404;2023-12-22T03:03:00;100463.53;;;12.26;100.00
36010;BME280;22076;52.182;5.404;2023-12-22T03:05:26;100477.66;;;12.36;100.00
36010;BME280;22076;52.182;5.404;2023-12-22T03:07:53;100480.09;;;12.27;100.00
36010;BME280;22076;52.182;5.404;2023-12-22T03:10:19;100523.22;;;12.21;100.00
36010;BME280;22076;52.182;5.404;2023-12-22T03:12:47;100518.44;;;12.02;100.00
36010;BME280;22076;52.182;5.404;2023-12-22T03:15:14;100510.16;;;11.55;100.00
36010;BME280;22076;52.182;5.404;2023-12-22T03:17:40;100497.16;;;12.06;100.00
36010;BME280;22076;52.182;5.404;2023-12-22T03:20:07;100509.72;;;12.01;100.00
36010;BME280;22076;52.182;5.404;2023-12-22T03:22:34;100505.63;;;11.97;100.00
36010;BME280;22076;52.182;5.404;2023-12-22T03:25:01;100511.00;;;12.34;100.00
36010;BME280;22076;52.182;5.404;2023-12-22T03:27:27;100524.50;;;12.02;100.00
36010;BME280;22076;52.182;5.404;2023-12-22T03:29:55;100520.41;;;11.98;100.00
36010;BME280;22076;52.182;5.404;2023-12-22T03:32:21;100556.72;;;11.90;100.00
36010;BME280;22076;52.182;5.404;2023-12-22T03:34:48;100541.41;;;11.84;100.00
36010;BME280;22076;52.182;5.404;2023-12-22T03:37:15;100561.16;;;12.15;100.00
36010;BME280;22076;52.182;5.404;2023-12-22T03:39:41;100569.38;;;11.56;100.00
36010;BME280;22076;52.182;5.404;2023-12-22T03:42:08;100569.41;;;11.69;100.00
36010;BME280;22076;52.182;5.404;2023-12-22T03:44:34;100583.09;;;11.32;100.00
36010;BME280;22076;52.182;5.404;2023-12-22T03:47:02;100572.47;;;11.76;100.00
36010;BME280;22076;52.182;5.404;2023-12-22T03:49:29;100554.28;;;11.87;100.00
36010;BME280;22076;52.182;5.404;2023-12-22T03:51:55;100541.09;;;11.88;100.00
36010;BME280;22076;52.182;5.404;2023-12-22T03:54:22;100543.75;;;11.61;100.00
36010;BME280;22076;52.182;5.404;2023-12-22T03:56:48;100543.69;;;11.88;100.00
36010;BME280;22076;52.182;5.404;2023-12-22T03:59:14;100543.25;;;12.09;100.00
36010;BME280;22076;52.182;5.404;2023-12-22T04:01:50;100536.44;;;12.32;100.00
36010;BME280;22076;52.182;5.404;2023-12-22T04:04:18;100543.38;;;12.33;100.00
36010;BME280;22076;52.182;5.404;2023-12-22T04:06:45;100528.91;;;12.15;100.00
36010;BME280;22076;52.182;5.404;2023-12-22T04:09:11;100523.28;;;11.94;100.00
36010;BME280;22076;52.182;5.404;2023-12-22T04:11:38;100536.13;;;12.11;100.00
36010;BME280;22076;52.182;5.404;2023-12-22T04:14:06;100534.34;;;12.12;100.00
36010;BME280;22076;52.182;5.404;2023-12-22T04:16:34;100537.28;;;12.20;100.00
36010;BME280;22076;52.182;5.404;2023-12-22T04:19:02;100536.78;;;12.15;100.00
36010;BME280;22076;52.182;5.404;2023-12-22T04:21:30;100531.63;;;12.26;100.00
36010;BME280;22076;52.182;5.404;2023-12-22T04:23:56;100535.81;;;11.76;100.00
36010;BME280;22076;52.182;5.404;2023-12-22T04:26:23;100544.03;;;11.84;100.00
36010;BME280;22076;52.182;5.404;2023-12-22T04:28:49;100536.97;;;12.25;100.00
36010;BME280;22076;52.182;5.404;2023-12-22T04:31:16;100549.41;;;12.08;100.00
36010;BME280;22076;52.182;5.404;2023-12-22T04:33:42;100557.53;;;11.90;100.00
36010;BME280;22076;52.182;5.404;2023-12-22T04:36:09;100554.59;;;12.22;100.00
36010;BME280;22076;52.182;5.404;2023-12-22T04:38:36;100555.53;;;12.47;100.00
36010;BME280;22076;52.182;5.404;2023-12-22T04:41:03;100555.09;;;12.40;100.00
36010;BME280;22076;52.182;5.404;2023-12-22T04:43:30;100561.69;;;12.33;100.00
36010;BME280;22076;52.182;5.404;2023-12-22T04:45:56;100561.47;;;12.36;100.00
36010;BME280;22076;52.182;5.404;2023-12-22T04:48:23;100561.19;;;12.54;100.00
36010;BME280;22076;52.182;5.404;2023-12-22T04:50:49;100553.31;;;12.54;100.00
36010;BME280;22076;52.182;5.404;2023-12-22T04:53:16;100560.66;;;12.49;100.00
36010;BME280;22076;52.182;5.404;2023-12-22T04:55:43;100558.63;;;12.78;100.00
36010;BME280;22076;52.182;5.404;2023-12-22T04:58:10;100551.22;;;12.33;100.00
36010;BME280;22076;52.182;5.404;2023-12-22T05:00:36;100545.34;;;12.68;100.00
36010;BME280;22076;52.182;5.404;2023-12-22T05:03:03;100558.44;;;12.30;100.00
36010;BME280;22076;52.182;5.404;2023-12-22T05:05:30;100561.88;;;12.56;100.00
36010;BME280;22076;52.182;5.404;2023-12-22T05:07:57;100553.81;;;12.72;100.00
36010;BME280;22076;52.182;5.404;2023-12-22T05:10:24;100552.97;;;12.59;100.00
36010;BME280;22076;52.182;5.404;2023-12-22T05:12:52;100544.38;;;12.82;100.00
36010;BME280;22076;52.182;5.404;2023-12-22T05:15:18;100545.97;;;12.72;100.00
36010;BME280;22076;52.182;5.404;2023-12-22T05:17:45;100539.81;;;12.60;100.00
36010;BME280;22076;52.182;5.404;2023-12-22T05:20:11;100537.47;;;12.68;100.00
36010;BME280;22076;52.182;5.404;2023-12-22T05:22:39;100532.53;;;12.64;100.00
36010;BME280;22076;52.182;5.404;2023-12-22T05:25:07;100522.75;;;12.92;100.00
36010;BME280;22076;52.182;5.404;2023-12-22T05:27:35;100531.25;;;12.82;100.00
36010;BME280;22076;52.182;5.404;2023-12-22T05:30:04;100536.25;;;12.98;100.00
36010;BME280;22076;52.182;5.404;2023-12-22T05:32:30;100548.78;;;12.43;100.00
36010;BME280;22076;52.182;5.404;2023-12-22T05:34:57;100535.50;;;12.46;100.00
36010;BME280;22076;52.182;5.404;2023-12-22T05:37:23;100534.34;;;12.25;100.00
36010;BME280;22076;52.182;5.404;2023-12-22T05:39:50;100520.50;;;12.35;100.00
36010;BME280;22076;52.182;5.404;2023-12-22T05:42:16;100525.84;;;12.47;100.00
36010;BME280;22076;52.182;5.404;2023-12-22T05:44:43;100508.63;;;12.68;100.00
36010;BME280;22076;52.182;5.404;2023-12-22T05:47:13;100518.75;;;12.23;100.00
36010;BME280;22076;52.182;5.404;2023-12-22T05:49:40;100522.50;;;12.06;100.00
36010;BME280;22076;52.182;5.404;2023-12-22T05:52:07;100518.75;;;12.36;100.00
36010;BME280;22076;52.182;5.404;2023-12-22T05:54:35;100525.03;;;12.33;100.00
36010;BME280;22076;52.182;5.404;2023-12-22T05:57:01;100537.16;;;11.96;100.00
36010;BME280;22076;52.182;5.404;2023-12-22T05:59:30;100541.28;;;12.26;100.00
36010;BME280;22076;52.182;5.404;2023-12-22T06:01:57;100536.84;;;12.52;100.00
36010;BME280;22076;52.182;5.404;2023-12-22T06:04:25;100530.22;;;12.72;100.00
36010;BME280;22076;52.182;5.404;2023-12-22T06:06:52;100531.19;;;12.71;100.00
36010;BME280;22076;52.182;5.404;2023-12-22T06:09:18;100526.91;;;12.18;100.00
36010;BME280;22076;52.182;5.404;2023-12-22T06:11:47;100514.75;;;12.04;100.00
36010;BME280;22076;52.182;5.404;2023-12-22T06:14:13;100515.81;;;12.15;100.00
36010;BME280;22076;52.182;5.404;2023-12-22T06:16:40;100526.38;;;12.39;100.00
36010;BME280;22076;52.182;5.404;2023-12-22T06:19:06;100505.84;;;12.33;100.00
36010;BME280;22076;52.182;5.404;2023-12-22T06:21:37;100516.09;;;12.62;100.00
36010;BME280;22076;52.182;5.404;2023-12-22T06:24:04;100526.38;;;12.39;100.00
36010;BME280;22076;52.182;5.404;2023-12-22T06:26:30;100534.22;;;12.52;100.00
36010;BME280;22076;52.182;5.404;2023-12-22T06:28:58;100521.84;;;12.67;100.00
36010;BME280;22076;52.182;5.404;2023-12-22T06:31:25;100513.59;;;12.47;100.00
36010;BME280;22076;52.182;5.404;2023-12-22T06:33:51;100513.88;;;12.68;100.00
36010;BME280;22076;52.182;5.404;2023-12-22T06:36:19;100527.47;;;12.86;100.00
36010;BME280;22076;52.182;5.404;2023-12-22T06:38:47;100524.13;;;12.84;100.00
36010;BME280;22076;52.182;5.404;2023-12-22T06:41:21;100522.41;;;12.96;100.00
36010;BME280;22076;52.182;5.404;2023-12-22T06:43:48;100526.88;;;12.70;100.00
36010;BME280;22076;52.182;5.404;2023-12-22T06:46:15;100522.53;;;12.82;100.00
36010;BME280;22076;52.182;5.404;2023-12-22T06:48:42;100528.81;;;12.16;100.00
36010;BME280;22076;52.182;5.404;2023-12-22T06:51:16;100520.50;;;12.98;100.00
36010;BME280;22076;52.182;5.404;2023-12-22T06:53:43;100524.66;;;12.77;100.00
36010;BME280;22076;52.182;5.404;2023-12-22T06:56:16;100516.63;;;13.28;100.00
36010;BME280;22076;52.182;5.404;2023-12-22T06:58:43;100524.25;;;13.31;100.00
36010;BME280;22076;52.182;5.404;2023-12-22T07:01:09;100531.34;;;12.81;100.00
36010;BME280;22076;52.182;5.404;2023-12-22T07:03:37;100508.13;;;13.00;100.00
36010;BME280;22076;52.182;5.404;2023-12-22T07:06:04;100513.97;;;13.04;100.00
36010;BME280;22076;52.182;5.404;2023-12-22T07:08:30;100509.53;;;12.93;100.00
36010;BME280;22076;52.182;5.404;2023-12-22T07:10:57;100517.75;;;13.13;100.00
36010;BME280;22076;52.182;5.404;2023-12-22T07:13:25;100507.59;;;12.95;100.00
36010;BME280;22076;52.182;5.404;2023-12-22T07:15:51;100501.22;;;12.99;100.00
36010;BME280;22076;52.182;5.404;2023-12-22T07:18:18;100507.69;;;13.06;100.00
36010;BME280;22076;52.182;5.404;2023-12-22T07:20:44;100509.34;;;13.08;100.00
36010;BME280;22076;52.182;5.404;2023-12-22T07:23:17;100527.75;;;13.32;100.00
36010;BME280;22076;52.182;5.404;2023-12-22T07:25:44;100525.69;;;13.24;100.00
36010;BME280;22076;52.182;5.404;2023-12-22T07:28:10;100531.63;;;13.26;100.00
36010;BME280;22076;52.182;5.404;2023-12-22T07:30:38;100522.25;;;13.35;100.00
36010;BME280;22076;52.182;5.404;2023-12-22T07:33:05;100530.53;;;13.17;100.00
36010;BME280;22076;52.182;5.404;2023-12-22T07:35:31;100520.59;;;13.34;100.00
36010;BME280;22076;52.182;5.404;2023-12-22T07:37:58;100517.94;;;13.47;100.00
36010;BME280;22076;52.182;5.404;2023-12-22T07:40:24;100515.66;;;13.42;100.00
36010;BME280;22076;52.182;5.404;2023-12-22T07:42:51;100514.50;;;13.33;100.00
36010;BME280;22076;52.182;5.404;2023-12-22T07:45:18;100511.13;;;13.20;100.00
36010;BME280;22076;52.182;5.404;2023-12-22T07:47:46;100526.63;;;13.23;100.00
36010;BME280;22076;52.182;5.404;2023-12-22T07:50:13;100525.69;;;13.48;100.00
36010;BME280;22076;52.182;5.404;2023-12-22T07:52:40;100541.50;;;13.22;100.00
36010;BME280;22076;52.182;5.404;2023-12-22T07:55:08;100517.34;;;13.30;100.00
36010;BME280;22076;52.182;5.404;2023-12-22T07:57:35;100509.19;;;13.22;100.00
36010;BME280;22076;52.182;5.404;2023-12-22T08:00:03;100520.06;;;13.42;100.00
36010;BME280;22076;52.182;5.404;2023-12-22T08:02:30;100540.84;;;13.32;100.00
36010;BME280;22076;52.182;5.404;2023-12-22T08:04:58;100546.72;;;13.60;100.00
36010;BME280;22076;52.182;5.404;2023-12-22T08:07:25;100546.53;;;13.26;100.00
36010;BME280;22076;52.182;5.404;2023-12-22T08:09:51;100535.66;;;13.19;100.00
36010;BME280;22076;52.182;5.404;2023-12-22T08:12:18;100538.31;;;13.43;100.00
36010;BME280;22076;52.182;5.404;2023-12-22T08:14:44;100526.19;;;13.53;100.00
36010;BME280;22076;52.182;5.404;2023-12-22T08:17:11;100522.59;;;13.30;100.00
36010;BME280;22076;52.182;5.404;2023-12-22T08:19:38;100526.25;;;13.28;100.00
36010;BME280;22076;52.182;5.404;2023-12-22T08:22:09;100518.31;;;13.53;100.00
36010;BME280;22076;52.182;5.404;2023-12-22T08:24:36;100511.59;;;13.25;100.00
36010;BME280;22076;52.182;5.404;2023-12-22T08:27:03;100500.53;;;13.33;100.00
36010;BME280;22076;52.182;5.404;2023-12-22T08:29:29;100485.03;;;13.30;100.00
36010;BME280;22076;52.182;5.404;2023-12-22T08:31:56;100487.94;;;13.14;100.00
36010;BME280;22076;52.182;5.404;2023-12-22T08:34:22;100488.16;;;13.35;100.00
36010;BME280;22076;52.182;5.404;2023-12-22T08:36:49;100490.06;;;13.57;100.00
36010;BME280;22076;52.182;5.404;2023-12-22T08:39:17;100481.63;;;13.41;100.00
36010;BME280;22076;52.182;5.404;2023-12-22T08:41:44;100469.63;;;13.49;100.00
36010;BME280;22076;52.182;5.404;2023-12-22T08:44:18;100479.34;;;13.71;100.00
36010;BME280;22076;52.182;5.404;2023-12-22T08:46:44;100476.19;;;13.55;100.00
36010;BME280;22076;52.182;5.404;2023-12-22T08:49:11;100471.56;;;13.47;100.00
36010;BME280;22076;52.182;5.404;2023-12-22T08:51:37;100471.09;;;13.05;100.00
36010;BME280;22076;52.182;5.404;2023-12-22T08:54:04;100469.41;;;13.28;100.00
36010;BME280;22076;52.182;5.404;2023-12-22T08:56:32;100475.03;;;13.59;100.00
36010;BME280;22076;52.182;5.404;2023-12-22T08:59:00;100464.63;;;13.58;100.00
36010;BME280;22076;52.182;5.404;2023-12-22T09:01:27;100462.75;;;13.35;100.00
36010;BME280;22076;52.182;5.404;2023-12-22T09:03:53;100465.69;;;13.44;100.00
36010;BME280;22076;52.182;5.404;2023-12-22T09:06:21;100467.38;;;13.56;100.00
36010;BME280;22076;52.182;5.404;2023-12-22T09:08:48;100463.28;;;13.76;100.00
36010;BME280;22076;52.182;5.404;2023-12-22T09:11:16;100474.34;;;13.80;100.00
36010;BME280;22076;52.182;5.404;2023-12-22T09:13:44;100476.09;;;13.57;100.00
36010;BME280;22076;52.182;5.404;2023-12-22T09:16:11;100461.06;;;13.47;100.00
36010;BME280;22076;52.182;5.404;2023-12-22T09:18:40;100474.59;;;13.77;100.00
36010;BME280;22076;52.182;5.404;2023-12-22T09:21:07;100474.97;;;13.23;100.00
36010;BME280;22076;52.182;5.404;2023-12-22T09:23:34;100469.72;;;13.72;100.00
36010;BME280;22076;52.182;5.404;2023-12-22T09:26:00;100469.38;;;13.88;100.00
36010;BME280;22076;52.182;5.404;2023-12-22T09:28:26;100483.31;;;13.77;100.00
36010;BME280;22076;52.182;5.404;2023-12-22T09:30:54;100483.91;;;13.69;100.00
36010;BME280;22076;52.182;5.404;2023-12-22T09:33:21;100493.97;;;13.51;100.00
36010;BME280;22076;52.182;5.404;2023-12-22T09:35:48;100480.81;;;13.40;100.00
36010;BME280;22076;52.182;5.404;2023-12-22T09:38:16;100483.66;;;13.37;100.00
36010;BME280;22076;52.182;5.404;2023-12-22T09:40:42;100465.28;;;13.13;100.00
36010;BME280;22076;52.182;5.404;2023-12-22T09:43:09;100479.06;;;13.52;100.00
36010;BME280;22076;52.182;5.404;2023-12-22T09:45:38;100477.78;;;13.33;100.00
36010;BME280;22076;52.182;5.404;2023-12-22T09:48:07;100469.09;;;13.80;100.00
36010;BME280;22076;52.182;5.404;2023-12-22T09:50:37;100476.56;;;13.50;100.00
36010;BME280;22076;52.182;5.404;2023-12-22T09:53:05;100468.63;;;13.15;100.00
36010;BME280;22076;52.182;5.404;2023-12-22T09:55:32;100467.00;;;13.49;100.00
36010;BME280;22076;52.182;5.404;2023-12-22T09:58:00;100466.69;;;13.65;100.00
36010;BME280;22076;52.182;5.404;2023-12-22T10:00:29;100462.09;;;13.20;100.00
36010;BME280;22076;52.182;5.404;2023-12-22T10:02:57;100467.16;;;13.35;100.00
36010;BME280;22076;52.182;5.404;2023-12-22T10:05:25;100477.84;;;13.80;100.00
36010;BME280;22076;52.182;5.404;2023-12-22T10:07:52;100474.53;;;13.54;100.00
36010;BME280;22076;52.182;5.404;2023-12-22T10:10:19;100470.78;;;13.69;100.00
36010;BME280;22076;52.182;5.404;2023-12-22T10:12:47;100482.97;;;13.82;100.00
36010;BME280;22076;52.182;5.404;2023-12-22T10:15:14;100478.88;;;13.66;100.00
36010;BME280;22076;52.182;5.404;2023-12-22T10:17:41;100480.22;;;13.83;100.00
36010;BME280;22076;52.182;5.404;2023-12-22T10:20:08;100469.88;;;14.04;100.00
36010;BME280;22076;52.182;5.404;2023-12-22T10:22:36;100479.41;;;14.05;100.00
36010;BME280;22076;52.182;5.404;2023-12-22T10:25:03;100481.56;;;14.12;100.00
36010;BME280;22076;52.182;5.404;2023-12-22T10:27:32;100475.91;;;13.82;100.00
36010;BME280;22076;52.182;5.404;2023-12-22T10:29:58;100486.81;;;14.12;100.00
36010;BME280;22076;52.182;5.404;2023-12-22T10:32:25;100498.03;;;14.02;100.00
36010;BME280;22076;52.182;5.404;2023-12-22T10:34:53;100478.00;;;14.24;100.00
36010;BME280;22076;52.182;5.404;2023-12-22T10:37:20;100477.03;;;14.48;100.00
36010;BME280;22076;52.182;5.404;2023-12-22T10:39:52;100492.44;;;14.18;100.00
36010;BME280;22076;52.182;5.404;2023-12-22T10:42:18;100497.69;;;13.96;100.00
36010;BME280;22076;52.182;5.404;2023-12-22T10:44:45;100480.81;;;13.87;100.00
36010;BME280;22076;52.182;5.404;2023-12-22T10:47:11;100486.47;;;14.28;100.00
36010;BME280;22076;52.182;5.404;2023-12-22T10:49:38;100486.47;;;14.28;100.00
36010;BME280;22076;52.182;5.404;2023-12-22T10:52:05;100480.38;;;14.27;100.00
36010;BME280;22076;52.182;5.404;2023-12-22T10:54:32;100482.31;;;14.36;100.00
36010;BME280;22076;52.182;5.404;2023-12-22T10:57:00;100474.75;;;14.43;100.00
36010;BME280;22076;52.182;5.404;2023-12-22T10:59:28;100470.59;;;14.18;100.00
36010;BME280;22076;52.182;5.404;2023-12-22T11:01:57;100466.06;;;14.43;100.00
36010;BME280;22076;52.182;5.404;2023-12-22T11:04:29;100472.13;;;14.43;100.00
36010;BME280;22076;52.182;5.404;2023-12-22T11:06:57;100451.72;;;14.35;100.00
36010;BME280;22076;52.182;5.404;2023-12-22T11:09:26;100453.13;;;14.40;100.00
36010;BME280;22076;52.182;5.404;2023-12-22T11:12:00;100450.19;;;14.10;100.00
36010;BME280;22076;52.182;5.404;2023-12-22T11:14:27;100466.53;;;14.25;100.00
36010;BME280;22076;52.182;5.404;2023-12-22T11:16:55;100464.63;;;14.27;100.00
36010;BME280;22076;52.182;5.404;2023-12-22T11:19:23;100461.16;;;14.61;100.00
36010;BME280;22076;52.182;5.404;2023-12-22T11:21:50;100464.50;;;14.40;100.00
36010;BME280;22076;52.182;5.404;2023-12-22T11:24:18;100462.13;;;14.71;100.00
36010;BME280;22076;52.182;5.404;2023-12-22T11:26:45;100452.66;;;14.57;100.00
36010;BME280;22076;52.182;5.404;2023-12-22T11:29:15;100447.38;;;14.80;100.00
36010;BME280;22076;52.182;5.404;2023-12-22T11:31:45;100460.91;;;14.86;100.00
36010;BME280;22076;52.182;5.404;2023-12-22T11:34:12;100460.06;;;14.63;100.00
36010;BME280;22076;52.182;5.404;2023-12-22T11:36:39;100447.88;;;14.62;100.00
36010;BME280;22076;52.182;5.404;2023-12-22T11:39:07;100460.44;;;14.81;100.00
36010;BME280;22076;52.182;5.404;2023-12-22T11:41:35;100450.44;;;14.96;100.00
36010;BME280;22076;52.182;5.404;2023-12-22T11:44:04;100431.34;;;14.94;100.00
36010;BME280;22076;52.182;5.404;2023-12-22T11:46:33;100441.53;;;14.53;100.00
36010;BME280;22076;52.182;5.404;2023-12-22T11:49:00;100452.06;;;14.53;100.00
36010;BME280;22076;52.182;5.404;2023-12-22T11:51:31;100436.41;;;14.52;100.00
36010;BME280;22076;52.182;5.404;2023-12-22T11:53:59;100432.06;;;14.85;100.00
36010;BME280;22076;52.182;5.404;2023-12-22T11:56:26;100430.22;;;14.42;100.00
36010;BME280;22076;52.182;5.404;2023-12-22T11:58:52;100433.41;;;14.68;100.00
36010;BME280;22076;52.182;5.404;2023-12-22T12:01:21;100419.38;;;14.90;100.00
36010;BME280;22076;52.182;5.404;2023-12-22T12:03:50;100416.25;;;14.96;100.00
36010;BME280;22076;52.182;5.404;2023-12-22T12:06:23;100410.56;;;15.12;100.00
36010;BME280;22076;52.182;5.404;2023-12-22T12:08:57;100403.22;;;14.95;100.00
36010;BME280;22076;52.182;5.404;2023-12-22T12:14:41;100381.19;;;14.75;100.00
36010;BME280;22076;52.182;5.404;2023-12-22T12:17:08;100365.78;;;14.70;100.00
36010;BME280;22076;52.182;5.404;2023-12-22T12:19:37;100381.50;;;14.37;100.00
36010;BME280;22076;52.182;5.404;2023-12-22T12:22:04;100379.53;;;14.51;100.00
36010;BME280;22076;52.182;5.404;2023-12-22T12:24:31;100383.72;;;14.42;100.00
36010;BME280;22076;52.182;5.404;2023-12-22T12:26:58;100393.16;;;14.56;100.00
36010;BME280;22076;52.182;5.404;2023-12-22T12:29:24;100394.88;;;14.23;100.00
36010;BME280;22076;52.182;5.404;2023-12-22T12:31:51;100405.63;;;14.20;100.00
36010;BME280;22076;52.182;5.404;2023-12-22T12:34:17;100384.19;;;14.59;100.00
36010;BME280;22076;52.182;5.404;2023-12-22T12:36:48;100384.91;;;15.26;100.00
36010;BME280;22076;52.182;5.404;2023-12-22T12:39:15;100388.22;;;14.63;100.00
36010;BME280;22076;52.182;5.404;2023-12-22T12:41:47;100392.78;;;14.61;100.00
36010;BME280;22076;52.182;5.404;2023-12-22T12:44:17;100386.69;;;14.72;100.00